sensor_id;sensor_type;location;lat;lon;timestamp;pressure;altitude;pressure_sealevel;temperature;humidity
48862;BME280;34681;49.188;-0.374;2022-12-08T00:00:40;101311.50;;;8.56;nan
48862;BME280;34681;49.188;-0.374;2022-12-08T00:03:05;101303.44;;;8.54;nan
48862;BME280;34681;49.188;-0.374;2022-12-08T00:05:31;101297.22;;;8.52;nan
48862;BME280;34681;49.188;-0.374;2022-12-08T00:08:15;101299.94;;;8.52;nan
48862;BME280;34681;49.188;-0.374;2022-12-08T00:10:59;101286.31;;;8.52;nan
48862;BME280;34681;49.188;-0.374;2022-12-08T00:13:24;101290.91;;;8.52;nan
48862;BME280;34681;49.188;-0.374;2022-12-08T00:15:49;101283.38;;;8.66;nan
48862;BME280;34681;49.188;-0.374;2022-12-08T00:18:14;101286.97;;;8.67;nan
48862;BME280;34681;49.188;-0.374;2022-12-08T00:20:40;101284.47;;;8.53;nan
48862;BME280;34681;49.188;-0.374;2022-12-08T00:23:05;101275.78;;;8.48;nan
48862;BME280;34681;49.188;-0.374;2022-12-08T00:25:33;101270.69;;;8.19;nan
48862;BME280;34681;49.188;-0.374;2022-12-08T00:27:59;101264.47;;;8.41;nan
48862;BME280;34681;49.188;-0.374;2022-12-08T00:30:24;101260.59;;;8.32;nan
48862;BME280;34681;49.188;-0.374;2022-12-08T00:32:50;101266.00;;;8.45;nan
48862;BME280;34681;49.188;-0.374;2022-12-08T00:35:15;101268.25;;;8.62;nan
48862;BME280;34681;49.188;-0.374;2022-12-08T00:37:40;101252.88;;;8.61;nan
48862;BME280;34681;49.188;-0.374;2022-12-08T00:40:06;101256.31;;;8.52;nan
48862;BME280;34681;49.188;-0.374;2022-12-08T00:42:32;101254.31;;;8.43;nan
48862;BME280;34681;49.188;-0.374;2022-12-08T00:44:57;101257.56;;;8.48;nan
48862;BME280;34681;49.188;-0.374;2022-12-08T00:47:22;101250.13;;;8.50;nan
48862;BME280;34681;49.188;-0.374;2022-12-08T00:49:48;101251.84;;;8.51;nan
48862;BME280;34681;49.188;-0.374;2022-12-08T00:52:13;101252.72;;;8.52;nan
48862;BME280;34681;49.188;-0.374;2022-12-08T00:54:39;101238.84;;;8.55;nan
48862;BME280;34681;49.188;-0.374;2022-12-08T00:57:04;101239.25;;;8.61;nan
48862;BME280;34681;49.188;-0.374;2022-12-08T00:59:29;101237.38;;;8.62;nan
48862;BME280;34681;49.188;-0.374;2022-12-08T01:01:55;101230.16;;;8.50;nan
48862;BME280;34681;49.188;-0.374;2022-12-08T01:04:20;101224.97;;;8.47;nan
48862;BME280;34681;49.188;-0.374;2022-12-08T01:06:46;101217.78;;;8.46;nan
48862;BME280;34681;49.188;-0.374;2022-12-08T01:09:13;101217.25;;;8.40;nan
48862;BME280;34681;49.188;-0.374;2022-12-08T01:11:39;101223.34;;;8.44;nan
48862;BME280;34681;49.188;-0.374;2022-12-08T01:14:04;101217.78;;;8.46;nan
48862;BME280;34681;49.188;-0.374;2022-12-08T01:16:34;101217.38;;;8.50;nan
48862;BME280;34681;49.188;-0.374;2022-12-08T01:19:00;101209.72;;;8.44;nan
48862;BME280;34681;49.188;-0.374;2022-12-08T01:21:26;101220.38;;;8.47;nan
48862;BME280;34681;49.188;-0.374;2022-12-08T01:23:51;101216.13;;;8.43;nan
48862;BME280;34681;49.188;-0.374;2022-12-08T01:26:18;101217.66;;;8.47;nan
48862;BME280;34681;49.188;-0.374;2022-12-08T01:28:44;101213.13;;;8.35;nan
48862;BME280;34681;49.188;-0.374;2022-12-08T01:31:12;101216.03;;;8.44;nan
48862;BME280;34681;49.188;-0.374;2022-12-08T01:33:38;101211.94;;;8.50;nan
48862;BME280;34681;49.188;-0.374;2022-12-08T01:36:04;101204.88;;;8.48;nan
48862;BME280;34681;49.188;-0.374;2022-12-08T01:38:30;101211.19;;;8.48;nan
48862;BME280;34681;49.188;-0.374;2022-12-08T01:40:56;101208.84;;;8.55;nan
48862;BME280;34681;49.188;-0.374;2022-12-08T01:43:21;101200.53;;;8.56;nan
48862;BME280;34681;49.188;-0.374;2022-12-08T01:45:46;101206.50;;;8.61;nan
48862;BME280;34681;49.188;-0.374;2022-12-08T01:48:17;101208.38;;;8.61;nan
48862;BME280;34681;49.188;-0.374;2022-12-08T01:50:46;101205.88;;;8.58;nan
48862;BME280;34681;49.188;-0.374;2022-12-08T01:53:30;101202.66;;;8.64;nan
48862;BME280;34681;49.188;-0.374;2022-12-08T01:56:00;101203.66;;;8.63;nan
48862;BME280;34681;49.188;-0.374;2022-12-08T01:58:34;101196.56;;;8.49;nan
48862;BME280;34681;49.188;-0.374;2022-12-08T02:01:01;101190.13;;;8.61;nan
48862;BME280;34681;49.188;-0.374;2022-12-08T02:03:33;101201.78;;;8.63;nan
48862;BME280;34681;49.188;-0.374;2022-12-08T02:06:00;101196.22;;;8.54;nan
48862;BME280;34681;49.188;-0.374;2022-12-08T02:08:26;101199.03;;;8.52;nan
48862;BME280;34681;49.188;-0.374;2022-12-08T02:10:52;101191.72;;;8.41;nan
48862;BME280;34681;49.188;-0.374;2022-12-08T02:13:20;101194.22;;;8.67;nan
48862;BME280;34681;49.188;-0.374;2022-12-08T02:35:57;101171.94;;;8.04;nan
48862;BME280;34681;49.188;-0.374;2022-12-08T02:43:36;101161.34;;;8.57;nan
48862;BME280;34681;49.188;-0.374;2022-12-08T02:46:06;101163.59;;;8.63;nan
48862;BME280;34681;49.188;-0.374;2022-12-08T02:48:33;101156.41;;;8.62;nan
48862;BME280;34681;49.188;-0.374;2022-12-08T02:50:58;101146.84;;;8.57;nan
48862;BME280;34681;49.188;-0.374;2022-12-08T02:53:26;101153.03;;;8.59;nan
48862;BME280;34681;49.188;-0.374;2022-12-08T02:56:00;101145.63;;;8.61;nan
48862;BME280;34681;49.188;-0.374;2022-12-08T03:03:34;101133.09;;;8.58;nan
48862;BME280;34681;49.188;-0.374;2022-12-08T03:14:44;101126.41;;;8.40;nan
48862;BME280;34681;49.188;-0.374;2022-12-08T03:17:11;101119.59;;;8.46;nan
48862;BME280;34681;49.188;-0.374;2022-12-08T03:19:41;101117.34;;;8.51;nan
48862;BME280;34681;49.188;-0.374;2022-12-08T03:22:08;101117.97;;;8.43;nan
48862;BME280;34681;49.188;-0.374;2022-12-08T03:24:40;101122.31;;;8.46;nan
48862;BME280;34681;49.188;-0.374;2022-12-08T03:27:14;101113.75;;;8.39;nan
48862;BME280;34681;49.188;-0.374;2022-12-08T03:29:44;101106.81;;;8.46;nan
48862;BME280;34681;49.188;-0.374;2022-12-08T03:32:32;101116.22;;;8.42;nan
48862;BME280;34681;49.188;-0.374;2022-12-08T03:35:03;101111.03;;;8.50;nan
48862;BME280;34681;49.188;-0.374;2022-12-08T03:37:29;101107.69;;;8.47;nan
48862;BME280;34681;49.188;-0.374;2022-12-08T03:39:55;101103.09;;;8.47;nan
48862;BME280;34681;49.188;-0.374;2022-12-08T03:42:21;101106.81;;;8.46;nan
48862;BME280;34681;49.188;-0.374;2022-12-08T03:44:46;101098.38;;;8.49;nan
48862;BME280;34681;49.188;-0.374;2022-12-08T03:47:11;101102.84;;;8.50;nan
48862;BME280;34681;49.188;-0.374;2022-12-08T03:49:37;101097.38;;;8.50;nan
48862;BME280;34681;49.188;-0.374;2022-12-08T03:52:02;101097.25;;;8.52;nan
48862;BME280;34681;49.188;-0.374;2022-12-08T03:54:28;101092.78;;;8.51;nan
48862;BME280;34681;49.188;-0.374;2022-12-08T03:56:53;101088.72;;;8.45;nan
48862;BME280;34681;49.188;-0.374;2022-12-08T03:59:18;101102.22;;;8.47;nan
48862;BME280;34681;49.188;-0.374;2022-12-08T04:01:44;101093.19;;;8.46;nan
48862;BME280;34681;49.188;-0.374;2022-12-08T04:04:09;101084.97;;;8.57;nan
48862;BME280;34681;49.188;-0.374;2022-12-08T04:06:34;101080.41;;;8.58;nan
48862;BME280;34681;49.188;-0.374;2022-12-08T04:09:00;101073.09;;;8.47;nan
48862;BME280;34681;49.188;-0.374;2022-12-08T04:11:25;101072.97;;;8.49;nan
48862;BME280;34681;49.188;-0.374;2022-12-08T04:13:50;101075.69;;;8.49;nan
48862;BME280;34681;49.188;-0.374;2022-12-08T04:16:18;101065.19;;;8.44;nan
48862;BME280;34681;49.188;-0.374;2022-12-08T04:18:44;101065.41;;;8.41;nan
48862;BME280;34681;49.188;-0.374;2022-12-08T04:21:10;101063.06;;;8.48;nan
48862;BME280;34681;49.188;-0.374;2022-12-08T04:23:35;101066.28;;;8.41;nan
48862;BME280;34681;49.188;-0.374;2022-12-08T04:26:01;101062.09;;;8.37;nan
48862;BME280;34681;49.188;-0.374;2022-12-08T04:28:27;101055.38;;;8.41;nan
48862;BME280;34681;49.188;-0.374;2022-12-08T04:30:53;101067.72;;;8.34;nan
48862;BME280;34681;49.188;-0.374;2022-12-08T04:33:19;101062.47;;;8.44;nan
48862;BME280;34681;49.188;-0.374;2022-12-08T04:35:44;101061.31;;;8.58;nan
48862;BME280;34681;49.188;-0.374;2022-12-08T04:38:09;101057.22;;;8.52;nan
48862;BME280;34681;49.188;-0.374;2022-12-08T04:40:35;101056.50;;;8.39;nan
48862;BME280;34681;49.188;-0.374;2022-12-08T04:43:00;101051.03;;;8.50;nan
48862;BME280;34681;49.188;-0.374;2022-12-08T04:45:26;101048.56;;;8.47;nan
48862;BME280;34681;49.188;-0.374;2022-12-08T04:47:51;101049.94;;;8.53;nan
48862;BME280;34681;49.188;-0.374;2022-12-08T04:50:16;101036.03;;;8.56;nan
48862;BME280;34681;49.188;-0.374;2022-12-08T04:52:42;101041.09;;;8.49;nan
48862;BME280;34681;49.188;-0.374;2022-12-08T04:55:07;101041.50;;;8.44;nan
48862;BME280;34681;49.188;-0.374;2022-12-08T04:57:33;101039.00;;;8.41;nan
48862;BME280;34681;49.188;-0.374;2022-12-08T04:59:58;101037.41;;;8.39;nan
48862;BME280;34681;49.188;-0.374;2022-12-08T05:02:24;101032.69;;;8.41;nan
48862;BME280;34681;49.188;-0.374;2022-12-08T05:04:49;101034.06;;;8.47;nan
48862;BME280;34681;49.188;-0.374;2022-12-08T05:07:14;101027.97;;;8.32;nan
48862;BME280;34681;49.188;-0.374;2022-12-08T05:09:40;101039.66;;;8.45;nan
48862;BME280;34681;49.188;-0.374;2022-12-08T05:12:05;101032.94;;;8.49;nan
48862;BME280;34681;49.188;-0.374;2022-12-08T05:14:31;101040.13;;;8.50;nan
48862;BME280;34681;49.188;-0.374;2022-12-08T05:16:56;101038.16;;;8.41;nan
48862;BME280;34681;49.188;-0.374;2022-12-08T05:19:22;101029.50;;;8.36;nan
48862;BME280;34681;49.188;-0.374;2022-12-08T05:21:47;101034.91;;;8.25;nan
48862;BME280;34681;49.188;-0.374;2022-12-08T05:24:12;101028.31;;;8.27;nan
48862;BME280;34681;49.188;-0.374;2022-12-08T05:26:38;101024.47;;;8.52;nan
48862;BME280;34681;49.188;-0.374;2022-12-08T05:29:03;101023.16;;;8.47;nan
48862;BME280;34681;49.188;-0.374;2022-12-08T05:31:28;101022.03;;;8.49;nan
48862;BME280;34681;49.188;-0.374;2022-12-08T05:33:54;101018.69;;;8.46;nan
48862;BME280;34681;49.188;-0.374;2022-12-08T05:36:20;101015.09;;;8.45;nan
48862;BME280;34681;49.188;-0.374;2022-12-08T05:38:45;101015.56;;;8.50;nan
48862;BME280;34681;49.188;-0.374;2022-12-08T05:41:16;101013.22;;;8.57;nan
48862;BME280;34681;49.188;-0.374;2022-12-08T05:43:43;101015.56;;;8.50;nan
48862;BME280;34681;49.188;-0.374;2022-12-08T05:46:08;101009.75;;;8.55;nan
48862;BME280;34681;49.188;-0.374;2022-12-08T05:48:34;101012.25;;;8.47;nan
48862;BME280;34681;49.188;-0.374;2022-12-08T05:51:00;101008.38;;;8.49;nan
48862;BME280;34681;49.188;-0.374;2022-12-08T05:53:25;100999.06;;;8.52;nan
48862;BME280;34681;49.188;-0.374;2022-12-08T05:55:51;100997.84;;;8.56;nan
48862;BME280;34681;49.188;-0.374;2022-12-08T05:58:18;100994.84;;;8.59;nan
48862;BME280;34681;49.188;-0.374;2022-12-08T06:00:45;100990.88;;;8.52;nan
48862;BME280;34681;49.188;-0.374;2022-12-08T06:03:11;100996.25;;;8.53;nan
48862;BME280;34681;49.188;-0.374;2022-12-08T06:05:37;100997.59;;;8.48;nan
48862;BME280;34681;49.188;-0.374;2022-12-08T06:08:04;100992.03;;;8.49;nan
48862;BME280;34681;49.188;-0.374;2022-12-08T06:10:29;100997.34;;;8.51;nan
48862;BME280;34681;49.188;-0.374;2022-12-08T06:12:55;100996.97;;;8.55;nan
48862;BME280;34681;49.188;-0.374;2022-12-08T06:15:20;100999.47;;;8.47;nan
48862;BME280;34681;49.188;-0.374;2022-12-08T06:17:46;100987.19;;;8.53;nan
48862;BME280;34681;49.188;-0.374;2022-12-08T06:20:11;100984.97;;;8.47;nan
48862;BME280;34681;49.188;-0.374;2022-12-08T06:22:37;100988.16;;;8.63;nan
48862;BME280;34681;49.188;-0.374;2022-12-08T06:25:03;100983.69;;;8.62;nan
48862;BME280;34681;49.188;-0.374;2022-12-08T06:27:28;100987.78;;;8.56;nan
48862;BME280;34681;49.188;-0.374;2022-12-08T06:29:54;100990.44;;;8.47;nan
48862;BME280;34681;49.188;-0.374;2022-12-08T06:32:19;100983.19;;;8.57;nan
48862;BME280;34681;49.188;-0.374;2022-12-08T06:34:45;100983.56;;;8.52;nan
48862;BME280;34681;49.188;-0.374;2022-12-08T06:37:10;100995.16;;;8.44;nan
48862;BME280;34681;49.188;-0.374;2022-12-08T06:39:36;100985.44;;;8.52;nan
48862;BME280;34681;49.188;-0.374;2022-12-08T06:42:01;100987.44;;;8.50;nan
48862;BME280;34681;49.188;-0.374;2022-12-08T06:44:45;100984.34;;;8.32;nan
48862;BME280;34681;49.188;-0.374;2022-12-08T06:47:11;100977.25;;;8.52;nan
48862;BME280;34681;49.188;-0.374;2022-12-08T06:49:36;100973.88;;;8.59;nan
48862;BME280;34681;49.188;-0.374;2022-12-08T06:52:02;100974.44;;;8.53;nan
48862;BME280;34681;49.188;-0.374;2022-12-08T06:54:27;100967.69;;;8.57;nan
48862;BME280;34681;49.188;-0.374;2022-12-08T06:56:53;100961.00;;;8.61;nan
48862;BME280;34681;49.188;-0.374;2022-12-08T06:59:18;100960.25;;;8.70;nan
48862;BME280;34681;49.188;-0.374;2022-12-08T07:01:44;100959.28;;;8.49;nan
48862;BME280;34681;49.188;-0.374;2022-12-08T07:04:10;100956.78;;;8.57;nan
48862;BME280;34681;49.188;-0.374;2022-12-08T07:06:36;100964.09;;;8.57;nan
48862;BME280;34681;49.188;-0.374;2022-12-08T07:09:01;100962.88;;;8.61;nan
48862;BME280;34681;49.188;-0.374;2022-12-08T07:11:27;100957.56;;;8.48;nan
48862;BME280;34681;49.188;-0.374;2022-12-08T07:13:54;100953.06;;;8.58;nan
48862;BME280;34681;49.188;-0.374;2022-12-08T07:16:21;100959.88;;;8.64;nan
48862;BME280;34681;49.188;-0.374;2022-12-08T07:18:46;100957.50;;;8.70;nan
48862;BME280;34681;49.188;-0.374;2022-12-08T07:21:13;100959.47;;;8.68;nan
48862;BME280;34681;49.188;-0.374;2022-12-08T07:23:44;100964.06;;;8.68;nan
48862;BME280;34681;49.188;-0.374;2022-12-08T07:26:11;100961.59;;;8.65;nan
48862;BME280;34681;49.188;-0.374;2022-12-08T07:28:38;100961.38;;;8.57;nan
48862;BME280;34681;49.188;-0.374;2022-12-08T07:31:05;100958.00;;;8.64;nan
48862;BME280;34681;49.188;-0.374;2022-12-08T07:33:31;100965.19;;;8.65;nan
48862;BME280;34681;49.188;-0.374;2022-12-08T07:35:59;100963.09;;;8.69;nan
48862;BME280;34681;49.188;-0.374;2022-12-08T07:38:25;100960.09;;;8.72;nan
48862;BME280;34681;49.188;-0.374;2022-12-08T07:40:51;100960.53;;;8.34;nan
48862;BME280;34681;49.188;-0.374;2022-12-08T07:43:17;100971.09;;;8.16;nan
48862;BME280;34681;49.188;-0.374;2022-12-08T07:45:42;100959.69;;;8.44;nan
48862;BME280;34681;49.188;-0.374;2022-12-08T07:48:08;100958.88;;;8.65;nan
48862;BME280;34681;49.188;-0.374;2022-12-08T07:50:33;100958.72;;;8.78;nan
48862;BME280;34681;49.188;-0.374;2022-12-08T07:52:59;100963.19;;;8.67;nan
48862;BME280;34681;49.188;-0.374;2022-12-08T07:55:25;100955.00;;;8.79;nan
48862;BME280;34681;49.188;-0.374;2022-12-08T07:57:51;100955.44;;;8.84;nan
48862;BME280;34681;49.188;-0.374;2022-12-08T08:00:17;100950.25;;;8.81;nan
48862;BME280;34681;49.188;-0.374;2022-12-08T08:02:43;100955.78;;;8.69;nan
48862;BME280;34681;49.188;-0.374;2022-12-08T08:05:09;100945.31;;;8.75;nan
48862;BME280;34681;49.188;-0.374;2022-12-08T08:07:36;100937.53;;;8.70;nan
48862;BME280;34681;49.188;-0.374;2022-12-08T08:10:02;100935.75;;;8.80;nan
48862;BME280;34681;49.188;-0.374;2022-12-08T08:12:27;100943.09;;;8.80;nan
48862;BME280;34681;49.188;-0.374;2022-12-08T08:14:53;100931.91;;;8.83;nan
48862;BME280;34681;49.188;-0.374;2022-12-08T08:17:18;100932.63;;;8.85;nan
48862;BME280;34681;49.188;-0.374;2022-12-08T08:19:45;100936.84;;;8.89;nan
48862;BME280;34681;49.188;-0.374;2022-12-08T08:22:10;100933.47;;;8.85;nan
48862;BME280;34681;49.188;-0.374;2022-12-08T08:24:35;100925.50;;;8.93;nan
48862;BME280;34681;49.188;-0.374;2022-12-08T08:27:01;100928.38;;;8.92;nan
48862;BME280;34681;49.188;-0.374;2022-12-08T08:29:27;100935.66;;;9.03;nan
48862;BME280;34681;49.188;-0.374;2022-12-08T08:31:52;100929.59;;;8.99;nan
48862;BME280;34681;49.188;-0.374;2022-12-08T08:34:17;100933.44;;;8.96;nan
48862;BME280;34681;49.188;-0.374;2022-12-08T08:36:43;100929.06;;;9.05;nan
48862;BME280;34681;49.188;-0.374;2022-12-08T08:39:08;100927.78;;;9.09;nan
48862;BME280;34681;49.188;-0.374;2022-12-08T08:41:33;100919.47;;;8.90;nan
48862;BME280;34681;49.188;-0.374;2022-12-08T08:43:59;100914.22;;;8.98;nan
48862;BME280;34681;49.188;-0.374;2022-12-08T08:46:25;100920.47;;;9.10;nan
48862;BME280;34681;49.188;-0.374;2022-12-08T08:48:50;100912.22;;;9.00;nan
48862;BME280;34681;49.188;-0.374;2022-12-08T08:51:16;100924.84;;;9.01;nan
48862;BME280;34681;49.188;-0.374;2022-12-08T08:53:42;100918.09;;;8.95;nan
48862;BME280;34681;49.188;-0.374;2022-12-08T08:56:12;100907.81;;;9.09;nan
48862;BME280;34681;49.188;-0.374;2022-12-08T08:58:38;100903.97;;;9.11;nan
48862;BME280;34681;49.188;-0.374;2022-12-08T09:01:04;100905.56;;;9.14;nan
48862;BME280;34681;49.188;-0.374;2022-12-08T09:03:30;100900.28;;;9.22;nan
48862;BME280;34681;49.188;-0.374;2022-12-08T09:05:56;100907.34;;;9.24;nan
48862;BME280;34681;49.188;-0.374;2022-12-08T09:08:21;100899.09;;;9.15;nan
48862;BME280;34681;49.188;-0.374;2022-12-08T09:10:47;100902.56;;;9.17;nan
48862;BME280;34681;49.188;-0.374;2022-12-08T09:13:12;100897.47;;;9.33;nan
48862;BME280;34681;49.188;-0.374;2022-12-08T09:15:38;100908.34;;;9.23;nan
48862;BME280;34681;49.188;-0.374;2022-12-08T09:18:03;100899.09;;;9.36;nan
48862;BME280;34681;49.188;-0.374;2022-12-08T09:20:31;100906.00;;;9.40;nan
48862;BME280;34681;49.188;-0.374;2022-12-08T09:22:56;100907.47;;;9.44;nan
48862;BME280;34681;49.188;-0.374;2022-12-08T09:25:22;100903.69;;;9.35;nan
48862;BME280;34681;49.188;-0.374;2022-12-08T09:27:47;100900.88;;;9.46;nan
48862;BME280;34681;49.188;-0.374;2022-12-08T09:30:13;100908.59;;;9.41;nan
48862;BME280;34681;49.188;-0.374;2022-12-08T09:32:39;100901.94;;;9.34;nan
48862;BME280;34681;49.188;-0.374;2022-12-08T09:35:05;100903.28;;;9.40;nan
48862;BME280;34681;49.188;-0.374;2022-12-08T09:37:30;100910.97;;;9.55;nan
48862;BME280;34681;49.188;-0.374;2022-12-08T09:39:56;100902.81;;;9.65;nan
48862;BME280;34681;49.188;-0.374;2022-12-08T09:42:39;100905.00;;;9.71;nan
48862;BME280;34681;49.188;-0.374;2022-12-08T09:48:06;100902.28;;;9.71;nan
48862;BME280;34681;49.188;-0.374;2022-12-08T09:50:38;100905.22;;;9.89;nan
48862;BME280;34681;49.188;-0.374;2022-12-08T09:55:40;100902.69;;;10.17;nan
48862;BME280;34681;49.188;-0.374;2022-12-08T09:58:20;100902.25;;;10.02;nan
48862;BME280;34681;49.188;-0.374;2022-12-08T10:00:46;100902.53;;;10.08;nan
48862;BME280;34681;49.188;-0.374;2022-12-08T10:03:12;100907.91;;;10.20;nan
48862;BME280;34681;49.188;-0.374;2022-12-08T10:05:43;100899.47;;;10.32;nan
48862;BME280;34681;49.188;-0.374;2022-12-08T10:08:25;100905.06;;;10.31;nan
48862;BME280;34681;49.188;-0.374;2022-12-08T10:10:58;100899.72;;;10.20;nan
48862;BME280;34681;49.188;-0.374;2022-12-08T10:16:32;100899.81;;;10.08;nan
48862;BME280;34681;49.188;-0.374;2022-12-08T10:19:23;100889.91;;;10.17;nan
48862;BME280;34681;49.188;-0.374;2022-12-08T10:21:50;100885.59;;;10.14;nan
48862;BME280;34681;49.188;-0.374;2022-12-08T10:24:39;100892.81;;;10.25;nan
48862;BME280;34681;49.188;-0.374;2022-12-08T10:27:10;100888.00;;;10.08;nan
48862;BME280;34681;49.188;-0.374;2022-12-08T10:29:36;100883.53;;;10.07;nan
48862;BME280;34681;49.188;-0.374;2022-12-08T10:32:11;100889.69;;;9.90;nan
48862;BME280;34681;49.188;-0.374;2022-12-08T10:35:02;100877.78;;;10.00;nan
48862;BME280;34681;49.188;-0.374;2022-12-08T10:37:27;100873.47;;;9.98;nan
48862;BME280;34681;49.188;-0.374;2022-12-08T10:42:39;100870.22;;;9.73;nan
48862;BME280;34681;49.188;-0.374;2022-12-08T10:47:38;100853.28;;;9.89;nan
48862;BME280;34681;49.188;-0.374;2022-12-08T10:52:52;100845.50;;;9.84;nan
48862;BME280;34681;49.188;-0.374;2022-12-08T10:55:19;100847.97;;;9.47;nan
48862;BME280;34681;49.188;-0.374;2022-12-08T10:57:45;100837.06;;;9.26;nan
48862;BME280;34681;49.188;-0.374;2022-12-08T11:00:19;100837.44;;;9.73;nan
48862;BME280;34681;49.188;-0.374;2022-12-08T11:03:03;100835.47;;;9.45;nan
48862;BME280;34681;49.188;-0.374;2022-12-08T11:05:34;100831.13;;;9.42;nan
48862;BME280;34681;49.188;-0.374;2022-12-08T11:08:00;100828.53;;;9.10;nan
48862;BME280;34681;49.188;-0.374;2022-12-08T11:10:33;100818.91;;;8.64;nan
48862;BME280;34681;49.188;-0.374;2022-12-08T11:13:04;100820.69;;;8.96;nan
48862;BME280;34681;49.188;-0.374;2022-12-08T11:15:37;100812.19;;;8.48;nan
48862;BME280;34681;49.188;-0.374;2022-12-08T11:18:17;100803.53;;;7.99;nan
48862;BME280;34681;49.188;-0.374;2022-12-08T11:20:44;100799.38;;;8.16;nan
48862;BME280;34681;49.188;-0.374;2022-12-08T11:23:21;100795.81;;;8.68;nan
48862;BME280;34681;49.188;-0.374;2022-12-08T11:25:48;100788.19;;;8.30;nan
48862;BME280;34681;49.188;-0.374;2022-12-08T11:28:18;100795.25;;;9.26;nan
48862;BME280;34681;49.188;-0.374;2022-12-08T11:30:51;100778.78;;;9.87;nan
48862;BME280;34681;49.188;-0.374;2022-12-08T11:33:24;100777.53;;;10.10;nan
48862;BME280;34681;49.188;-0.374;2022-12-08T11:38:22;100779.25;;;10.11;nan
48862;BME280;34681;49.188;-0.374;2022-12-08T11:41:01;100780.22;;;10.01;nan
48862;BME280;34681;49.188;-0.374;2022-12-08T11:46:02;100765.91;;;10.37;nan
48862;BME280;34681;49.188;-0.374;2022-12-08T11:48:35;100767.78;;;10.37;nan
48862;BME280;34681;49.188;-0.374;2022-12-08T11:51:06;100773.09;;;10.38;nan
48862;BME280;34681;49.188;-0.374;2022-12-08T11:56:18;100769.25;;;8.91;nan
48862;BME280;34681;49.188;-0.374;2022-12-08T11:58:46;100771.38;;;8.88;nan
48862;BME280;34681;49.188;-0.374;2022-12-08T12:01:25;100771.38;;;8.88;nan
48862;BME280;34681;49.188;-0.374;2022-12-08T12:12:42;100778.25;;;8.82;nan
48862;BME280;34681;49.188;-0.374;2022-12-08T12:20:35;100759.28;;;8.81;nan
48862;BME280;34681;49.188;-0.374;2022-12-08T12:25:57;100757.69;;;9.49;nan
48862;BME280;34681;49.188;-0.374;2022-12-08T12:28:27;100749.03;;;8.73;nan
48862;BME280;34681;49.188;-0.374;2022-12-08T12:31:06;100750.88;;;9.34;nan
48862;BME280;34681;49.188;-0.374;2022-12-08T12:33:32;100757.66;;;8.99;nan
48862;BME280;34681;49.188;-0.374;2022-12-08T12:36:05;100748.78;;;8.55;nan
48862;BME280;34681;49.188;-0.374;2022-12-08T12:38:38;100749.50;;;8.78;nan
48862;BME280;34681;49.188;-0.374;2022-12-08T12:54:29;100722.78;;;8.19;nan
48862;BME280;34681;49.188;-0.374;2022-12-08T13:02:23;100717.88;;;8.45;nan
48862;BME280;34681;49.188;-0.374;2022-12-08T13:05:06;100721.66;;;8.84;nan
48862;BME280;34681;49.188;-0.374;2022-12-08T13:07:40;100726.16;;;8.23;nan
48862;BME280;34681;49.188;-0.374;2022-12-08T13:12:33;100720.00;;;8.09;nan
48862;BME280;34681;49.188;-0.374;2022-12-08T13:15:03;100720.53;;;8.56;nan
48862;BME280;34681;49.188;-0.374;2022-12-08T13:17:31;100715.66;;;8.60;nan
48862;BME280;34681;49.188;-0.374;2022-12-08T13:20:00;100714.63;;;8.82;nan
48862;BME280;34681;49.188;-0.374;2022-12-08T13:33:38;100705.78;;;8.06;nan
48862;BME280;34681;49.188;-0.374;2022-12-08T13:36:16;100703.94;;;8.06;nan
48862;BME280;34681;49.188;-0.374;2022-12-08T13:38:45;100696.09;;;8.85;nan
48862;BME280;34681;49.188;-0.374;2022-12-08T13:41:16;100693.09;;;9.19;nan
48862;BME280;34681;49.188;-0.374;2022-12-08T13:46:09;100694.97;;;8.57;nan
48862;BME280;34681;49.188;-0.374;2022-12-08T13:48:49;100692.16;;;8.68;nan
48862;BME280;34681;49.188;-0.374;2022-12-08T13:51:20;100694.97;;;7.95;nan
48862;BME280;34681;49.188;-0.374;2022-12-08T13:56:38;100693.81;;;7.97;nan
48862;BME280;34681;49.188;-0.374;2022-12-08T13:59:22;100683.25;;;8.36;nan
48862;BME280;34681;49.188;-0.374;2022-12-08T14:01:49;100683.00;;;8.28;nan
48862;BME280;34681;49.188;-0.374;2022-12-08T14:04:17;100682.28;;;9.08;nan
48862;BME280;34681;49.188;-0.374;2022-12-08T14:06:48;100673.59;;;8.93;nan
48862;BME280;34681;49.188;-0.374;2022-12-08T14:09:26;100665.81;;;9.28;nan
48862;BME280;34681;49.188;-0.374;2022-12-08T14:11:57;100664.22;;;9.26;nan
48862;BME280;34681;49.188;-0.374;2022-12-08T14:17:10;100664.16;;;9.85;nan
48862;BME280;34681;49.188;-0.374;2022-12-08T14:19:36;100662.53;;;9.93;nan
48862;BME280;34681;49.188;-0.374;2022-12-08T14:22:12;100675.50;;;10.10;nan
48862;BME280;34681;49.188;-0.374;2022-12-08T14:24:39;100664.41;;;10.11;nan
48862;BME280;34681;49.188;-0.374;2022-12-08T14:27:13;100662.97;;;10.17;nan
48862;BME280;34681;49.188;-0.374;2022-12-08T14:29:43;100658.69;;;9.95;nan
48862;BME280;34681;49.188;-0.374;2022-12-08T14:32:36;100653.50;;;9.82;nan
48862;BME280;34681;49.188;-0.374;2022-12-08T14:37:46;100664.72;;;9.60;nan
48862;BME280;34681;49.188;-0.374;2022-12-08T14:42:43;100658.50;;;9.68;nan
48862;BME280;34681;49.188;-0.374;2022-12-08T14:45:10;100657.38;;;9.70;nan
48862;BME280;34681;49.188;-0.374;2022-12-08T14:47:37;100663.81;;;9.50;nan
48862;BME280;34681;49.188;-0.374;2022-12-08T14:50:43;100659.25;;;9.70;nan
48862;BME280;34681;49.188;-0.374;2022-12-08T14:53:15;100662.28;;;9.86;nan
48862;BME280;34681;49.188;-0.374;2022-12-08T14:55:42;100655.22;;;9.74;nan
48862;BME280;34681;49.188;-0.374;2022-12-08T15:00:46;100655.63;;;9.50;nan
48862;BME280;34681;49.188;-0.374;2022-12-08T15:03:14;100660.06;;;9.41;nan
48862;BME280;34681;49.188;-0.374;2022-12-08T15:05:41;100664.97;;;9.47;nan
48862;BME280;34681;49.188;-0.374;2022-12-08T15:08:09;100660.50;;;9.27;nan
48862;BME280;34681;49.188;-0.374;2022-12-08T15:10:37;100654.09;;;8.97;nan
48862;BME280;34681;49.188;-0.374;2022-12-08T15:18:13;100662.16;;;9.09;nan
48862;BME280;34681;49.188;-0.374;2022-12-08T15:20:42;100659.84;;;8.94;nan
48862;BME280;34681;49.188;-0.374;2022-12-08T15:23:29;100654.16;;;9.26;nan
48862;BME280;34681;49.188;-0.374;2022-12-08T15:25:57;100651.16;;;9.39;nan
48862;BME280;34681;49.188;-0.374;2022-12-08T15:28:26;100650.25;;;8.69;nan